sensor_id;sensor_type;location;lat;lon;timestamp;P1;durP1;ratioP1;P2;durP2;ratioP2
58468;SDS011;44257;44.804;10.220;2023-07-08T00:00:43;7.60;;;5.20;;
58468;SDS011;44257;44.804;10.220;2023-07-08T00:03:10;7.70;;;5.53;;
58468;SDS011;44257;44.804;10.220;2023-07-08T00:05:36;9.65;;;6.13;;
58468;SDS011;44257;44.804;10.220;2023-07-08T00:08:02;8.27;;;5.25;;
58468;SDS011;44257;44.804;10.220;2023-07-08T00:10:29;12.18;;;6.10;;
58468;SDS011;44257;44.804;10.220;2023-07-08T00:12:55;9.88;;;5.65;;
58468;SDS011;44257;44.804;10.220;2023-07-08T00:15:29;9.63;;;6.07;;
58468;SDS011;44257;44.804;10.220;2023-07-08T00:17:58;15.85;;;6.00;;
58468;SDS011;44257;44.804;10.220;2023-07-08T00:20:42;11.65;;;6.22;;
58468;SDS011;44257;44.804;10.220;2023-07-08T00:23:10;8.73;;;6.15;;
58468;SDS011;44257;44.804;10.220;2023-07-08T00:25:36;11.32;;;6.43;;
58468;SDS011;44257;44.804;10.220;2023-07-08T00:28:07;12.38;;;6.72;;
58468;SDS011;44257;44.804;10.220;2023-07-08T00:30:34;8.80;;;6.70;;
58468;SDS011;44257;44.804;10.220;2023-07-08T00:33:00;13.50;;;6.68;;
58468;SDS011;44257;44.804;10.220;2023-07-08T00:38:00;8.80;;;6.28;;
58468;SDS011;44257;44.804;10.220;2023-07-08T00:40:30;9.43;;;6.85;;
58468;SDS011;44257;44.804;10.220;2023-07-08T00:42:58;9.40;;;6.75;;
58468;SDS011;44257;44.804;10.220;2023-07-08T00:45:38;9.15;;;6.47;;
58468;SDS011;44257;44.804;10.220;2023-07-08T00:48:19;9.43;;;6.53;;
58468;SDS011;44257;44.804;10.220;2023-07-08T00:50:52;9.40;;;6.60;;
58468;SDS011;44257;44.804;10.220;2023-07-08T00:53:27;8.82;;;6.45;;
58468;SDS011;44257;44.804;10.220;2023-07-08T00:56:02;11.75;;;7.38;;
58468;SDS011;44257;44.804;10.220;2023-07-08T00:58:37;10.30;;;6.95;;
58468;SDS011;44257;44.804;10.220;2023-07-08T01:01:06;10.23;;;6.82;;
58468;SDS011;44257;44.804;10.220;2023-07-08T01:03:35;10.98;;;7.13;;
58468;SDS011;44257;44.804;10.220;2023-07-08T01:06:23;9.68;;;6.13;;
58468;SDS011;44257;44.804;10.220;2023-07-08T01:08:56;8.88;;;7.15;;
58468;SDS011;44257;44.804;10.220;2023-07-08T01:11:28;10.75;;;7.60;;
58468;SDS011;44257;44.804;10.220;2023-07-08T01:13:55;10.60;;;6.80;;
58468;SDS011;44257;44.804;10.220;2023-07-08T01:16:23;10.85;;;7.63;;
58468;SDS011;44257;44.804;10.220;2023-07-08T01:18:49;12.45;;;6.95;;
58468;SDS011;44257;44.804;10.220;2023-07-08T01:24:02;12.85;;;8.13;;
58468;SDS011;44257;44.804;10.220;2023-07-08T01:26:31;10.15;;;7.35;;
58468;SDS011;44257;44.804;10.220;2023-07-08T01:29:00;10.48;;;6.82;;
58468;SDS011;44257;44.804;10.220;2023-07-08T01:31:27;12.10;;;7.47;;
58468;SDS011;44257;44.804;10.220;2023-07-08T01:33:54;13.75;;;7.18;;
58468;SDS011;44257;44.804;10.220;2023-07-08T01:36:22;10.85;;;7.57;;
58468;SDS011;44257;44.804;10.220;2023-07-08T01:38:48;11.43;;;7.97;;
58468;SDS011;44257;44.804;10.220;2023-07-08T01:41:15;9.93;;;7.57;;
58468;SDS011;44257;44.804;10.220;2023-07-08T01:43:43;13.00;;;8.25;;
58468;SDS011;44257;44.804;10.220;2023-07-08T01:46:16;11.52;;;8.32;;
58468;SDS011;44257;44.804;10.220;2023-07-08T01:48:46;11.75;;;8.65;;
58468;SDS011;44257;44.804;10.220;2023-07-08T01:51:16;10.88;;;7.90;;
58468;SDS011;44257;44.804;10.220;2023-07-08T01:53:43;12.27;;;8.32;;
58468;SDS011;44257;44.804;10.220;2023-07-08T01:56:10;11.98;;;8.57;;
58468;SDS011;44257;44.804;10.220;2023-07-08T01:58:38;12.07;;;8.52;;
58468;SDS011;44257;44.804;10.220;2023-07-08T02:01:04;12.80;;;8.27;;
58468;SDS011;44257;44.804;10.220;2023-07-08T02:03:31;12.93;;;8.90;;
58468;SDS011;44257;44.804;10.220;2023-07-08T02:05:57;13.18;;;8.43;;
58468;SDS011;44257;44.804;10.220;2023-07-08T02:08:23;11.43;;;8.00;;
58468;SDS011;44257;44.804;10.220;2023-07-08T02:10:51;10.73;;;8.40;;
58468;SDS011;44257;44.804;10.220;2023-07-08T02:13:21;10.95;;;7.82;;
58468;SDS011;44257;44.804;10.220;2023-07-08T02:15:48;11.00;;;7.93;;
58468;SDS011;44257;44.804;10.220;2023-07-08T02:18:14;11.10;;;8.82;;
58468;SDS011;44257;44.804;10.220;2023-07-08T02:20:42;13.05;;;8.65;;
58468;SDS011;44257;44.804;10.220;2023-07-08T02:23:08;9.20;;;7.47;;
58468;SDS011;44257;44.804;10.220;2023-07-08T02:25:34;12.00;;;8.88;;
58468;SDS011;44257;44.804;10.220;2023-07-08T02:28:00;10.00;;;8.18;;
58468;SDS011;44257;44.804;10.220;2023-07-08T02:30:26;8.48;;;6.95;;
58468;SDS011;44257;44.804;10.220;2023-07-08T02:32:52;12.52;;;8.15;;
58468;SDS011;44257;44.804;10.220;2023-07-08T02:35:25;10.07;;;7.00;;
58468;SDS011;44257;44.804;10.220;2023-07-08T02:37:53;10.63;;;7.45;;
58468;SDS011;44257;44.804;10.220;2023-07-08T02:40:19;8.80;;;6.85;;
58468;SDS011;44257;44.804;10.220;2023-07-08T02:42:46;8.20;;;6.53;;
58468;SDS011;44257;44.804;10.220;2023-07-08T02:45:13;9.93;;;6.80;;
58468;SDS011;44257;44.804;10.220;2023-07-08T02:47:39;10.70;;;6.95;;
58468;SDS011;44257;44.804;10.220;2023-07-08T02:50:07;9.82;;;6.80;;
58468;SDS011;44257;44.804;10.220;2023-07-08T02:52:34;9.38;;;6.80;;
58468;SDS011;44257;44.804;10.220;2023-07-08T02:55:00;11.35;;;7.38;;
58468;SDS011;44257;44.804;10.220;2023-07-08T02:57:27;8.68;;;7.07;;
58468;SDS011;44257;44.804;10.220;2023-07-08T02:59:52;11.15;;;7.35;;
58468;SDS011;44257;44.804;10.220;2023-07-08T03:02:18;9.63;;;7.05;;
58468;SDS011;44257;44.804;10.220;2023-07-08T03:04:44;12.00;;;8.63;;
58468;SDS011;44257;44.804;10.220;2023-07-08T03:07:11;12.07;;;8.07;;
58468;SDS011;44257;44.804;10.220;2023-07-08T03:09:40;12.32;;;8.02;;
58468;SDS011;44257;44.804;10.220;2023-07-08T03:12:08;12.60;;;8.00;;
58468;SDS011;44257;44.804;10.220;2023-07-08T03:14:35;11.55;;;8.43;;
58468;SDS011;44257;44.804;10.220;2023-07-08T03:17:02;11.85;;;7.45;;
58468;SDS011;44257;44.804;10.220;2023-07-08T03:19:28;12.40;;;8.40;;
58468;SDS011;44257;44.804;10.220;2023-07-08T03:21:54;10.80;;;8.02;;
58468;SDS011;44257;44.804;10.220;2023-07-08T03:24:20;12.15;;;9.73;;
58468;SDS011;44257;44.804;10.220;2023-07-08T03:26:47;11.95;;;8.85;;
58468;SDS011;44257;44.804;10.220;2023-07-08T03:29:14;14.30;;;10.15;;
58468;SDS011;44257;44.804;10.220;2023-07-08T03:31:43;15.55;;;9.90;;
58468;SDS011;44257;44.804;10.220;2023-07-08T03:34:10;15.32;;;11.20;;
58468;SDS011;44257;44.804;10.220;2023-07-08T03:36:42;15.35;;;11.73;;
58468;SDS011;44257;44.804;10.220;2023-07-08T03:39:18;18.88;;;11.80;;
58468;SDS011;44257;44.804;10.220;2023-07-08T03:41:45;17.38;;;11.77;;
58468;SDS011;44257;44.804;10.220;2023-07-08T03:44:12;16.55;;;12.27;;
58468;SDS011;44257;44.804;10.220;2023-07-08T03:46:40;16.08;;;11.65;;
58468;SDS011;44257;44.804;10.220;2023-07-08T03:49:09;17.63;;;12.20;;
58468;SDS011;44257;44.804;10.220;2023-07-08T03:51:36;18.50;;;12.25;;
58468;SDS011;44257;44.804;10.220;2023-07-08T03:54:05;20.15;;;12.77;;
58468;SDS011;44257;44.804;10.220;2023-07-08T03:56:34;18.00;;;13.20;;
58468;SDS011;44257;44.804;10.220;2023-07-08T03:59:01;17.15;;;13.05;;
58468;SDS011;44257;44.804;10.220;2023-07-08T04:01:28;19.02;;;12.95;;
58468;SDS011;44257;44.804;10.220;2023-07-08T04:03:55;20.25;;;12.18;;
58468;SDS011;44257;44.804;10.220;2023-07-08T04:06:22;15.90;;;11.85;;
58468;SDS011;44257;44.804;10.220;2023-07-08T04:08:49;17.13;;;11.73;;
58468;SDS011;44257;44.804;10.220;2023-07-08T04:11:19;13.63;;;10.07;;
58468;SDS011;44257;44.804;10.220;2023-07-08T04:13:46;14.82;;;10.48;;
58468;SDS011;44257;44.804;10.220;2023-07-08T04:16:27;17.70;;;11.05;;
58468;SDS011;44257;44.804;10.220;2023-07-08T04:18:55;17.45;;;11.52;;
58468;SDS011;44257;44.804;10.220;2023-07-08T04:21:22;14.75;;;10.35;;
58468;SDS011;44257;44.804;10.220;2023-07-08T04:23:52;14.68;;;11.35;;
58468;SDS011;44257;44.804;10.220;2023-07-08T04:26:21;16.48;;;10.80;;
58468;SDS011;44257;44.804;10.220;2023-07-08T04:28:46;15.85;;;11.45;;
58468;SDS011;44257;44.804;10.220;2023-07-08T04:31:12;19.73;;;12.10;;
58468;SDS011;44257;44.804;10.220;2023-07-08T04:33:38;19.63;;;13.10;;
58468;SDS011;44257;44.804;10.220;2023-07-08T04:36:05;19.02;;;13.18;;
58468;SDS011;44257;44.804;10.220;2023-07-08T04:38:37;19.58;;;12.52;;
58468;SDS011;44257;44.804;10.220;2023-07-08T04:41:03;21.08;;;12.73;;
58468;SDS011;44257;44.804;10.220;2023-07-08T04:43:30;19.17;;;13.23;;
58468;SDS011;44257;44.804;10.220;2023-07-08T04:45:56;17.98;;;12.98;;
58468;SDS011;44257;44.804;10.220;2023-07-08T04:48:23;17.83;;;11.88;;
58468;SDS011;44257;44.804;10.220;2023-07-08T04:50:50;18.75;;;12.25;;
58468;SDS011;44257;44.804;10.220;2023-07-08T04:53:17;17.25;;;11.65;;
58468;SDS011;44257;44.804;10.220;2023-07-08T04:56:16;16.33;;;10.05;;
58468;SDS011;44257;44.804;10.220;2023-07-08T04:58:35;16.75;;;9.55;;
58468;SDS011;44257;44.804;10.220;2023-07-08T05:01:00;14.07;;;9.77;;
58468;SDS011;44257;44.804;10.220;2023-07-08T05:03:26;15.18;;;10.27;;
58468;SDS011;44257;44.804;10.220;2023-07-08T05:05:52;18.25;;;10.50;;
58468;SDS011;44257;44.804;10.220;2023-07-08T05:08:18;16.90;;;9.95;;
58468;SDS011;44257;44.804;10.220;2023-07-08T05:10:44;15.43;;;11.48;;
58468;SDS011;44257;44.804;10.220;2023-07-08T05:13:10;17.10;;;11.45;;
58468;SDS011;44257;44.804;10.220;2023-07-08T05:15:35;17.67;;;11.05;;
58468;SDS011;44257;44.804;10.220;2023-07-08T05:18:03;17.48;;;11.15;;
58468;SDS011;44257;44.804;10.220;2023-07-08T05:20:29;18.90;;;11.30;;
58468;SDS011;44257;44.804;10.220;2023-07-08T05:22:56;18.30;;;12.38;;
58468;SDS011;44257;44.804;10.220;2023-07-08T05:25:22;17.73;;;12.32;;
58468;SDS011;44257;44.804;10.220;2023-07-08T05:27:47;16.52;;;12.50;;
58468;SDS011;44257;44.804;10.220;2023-07-08T05:30:15;16.48;;;12.10;;
58468;SDS011;44257;44.804;10.220;2023-07-08T05:32:42;17.17;;;12.02;;
58468;SDS011;44257;44.804;10.220;2023-07-08T05:35:08;15.25;;;10.85;;
58468;SDS011;44257;44.804;10.220;2023-07-08T05:37:34;19.58;;;11.50;;
58468;SDS011;44257;44.804;10.220;2023-07-08T05:40:00;18.00;;;11.65;;
58468;SDS011;44257;44.804;10.220;2023-07-08T05:42:29;19.05;;;11.82;;
58468;SDS011;44257;44.804;10.220;2023-07-08T05:44:55;17.05;;;10.60;;
58468;SDS011;44257;44.804;10.220;2023-07-08T05:47:21;20.25;;;13.07;;
58468;SDS011;44257;44.804;10.220;2023-07-08T05:49:47;18.80;;;11.13;;
58468;SDS011;44257;44.804;10.220;2023-07-08T05:52:13;17.55;;;11.30;;
58468;SDS011;44257;44.804;10.220;2023-07-08T05:54:40;18.13;;;11.48;;
58468;SDS011;44257;44.804;10.220;2023-07-08T05:57:08;15.73;;;11.23;;
58468;SDS011;44257;44.804;10.220;2023-07-08T05:59:35;13.07;;;9.57;;
58468;SDS011;44257;44.804;10.220;2023-07-08T06:02:04;14.73;;;10.32;;
58468;SDS011;44257;44.804;10.220;2023-07-08T06:04:30;17.58;;;10.70;;
58468;SDS011;44257;44.804;10.220;2023-07-08T06:06:56;15.35;;;10.13;;
58468;SDS011;44257;44.804;10.220;2023-07-08T06:09:22;17.40;;;9.98;;
58468;SDS011;44257;44.804;10.220;2023-07-08T06:11:48;15.20;;;9.90;;
58468;SDS011;44257;44.804;10.220;2023-07-08T06:14:15;14.35;;;10.23;;
58468;SDS011;44257;44.804;10.220;2023-07-08T06:16:40;15.98;;;10.05;;
58468;SDS011;44257;44.804;10.220;2023-07-08T06:19:06;16.50;;;9.80;;
58468;SDS011;44257;44.804;10.220;2023-07-08T06:21:33;13.15;;;10.00;;
58468;SDS011;44257;44.804;10.220;2023-07-08T06:23:59;17.05;;;9.65;;
58468;SDS011;44257;44.804;10.220;2023-07-08T06:26:24;14.13;;;9.88;;
58468;SDS011;44257;44.804;10.220;2023-07-08T06:28:50;13.63;;;9.23;;
58468;SDS011;44257;44.804;10.220;2023-07-08T06:31:16;12.18;;;9.38;;
58468;SDS011;44257;44.804;10.220;2023-07-08T06:33:42;14.07;;;8.70;;
58468;SDS011;44257;44.804;10.220;2023-07-08T06:36:08;12.38;;;9.95;;
58468;SDS011;44257;44.804;10.220;2023-07-08T06:38:34;12.25;;;9.65;;
58468;SDS011;44257;44.804;10.220;2023-07-08T06:41:00;12.10;;;9.25;;
58468;SDS011;44257;44.804;10.220;2023-07-08T06:43:26;13.60;;;9.43;;
58468;SDS011;44257;44.804;10.220;2023-07-08T06:46:03;15.15;;;9.88;;
58468;SDS011;44257;44.804;10.220;2023-07-08T06:48:29;11.65;;;9.70;;
58468;SDS011;44257;44.804;10.220;2023-07-08T06:50:56;13.95;;;10.43;;
58468;SDS011;44257;44.804;10.220;2023-07-08T06:53:22;16.67;;;10.15;;
58468;SDS011;44257;44.804;10.220;2023-07-08T06:55:48;13.13;;;9.82;;
58468;SDS011;44257;44.804;10.220;2023-07-08T06:58:15;14.05;;;10.57;;
58468;SDS011;44257;44.804;10.220;2023-07-08T07:00:43;15.05;;;11.10;;
58468;SDS011;44257;44.804;10.220;2023-07-08T07:03:10;17.55;;;10.30;;
58468;SDS011;44257;44.804;10.220;2023-07-08T07:05:37;15.70;;;11.02;;
58468;SDS011;44257;44.804;10.220;2023-07-08T07:08:03;14.77;;;10.77;;
58468;SDS011;44257;44.804;10.220;2023-07-08T07:10:29;17.27;;;11.50;;
58468;SDS011;44257;44.804;10.220;2023-07-08T07:12:55;20.42;;;11.55;;
58468;SDS011;44257;44.804;10.220;2023-07-08T07:15:21;21.27;;;12.32;;
58468;SDS011;44257;44.804;10.220;2023-07-08T07:17:47;19.15;;;12.60;;
58468;SDS011;44257;44.804;10.220;2023-07-08T07:20:13;17.17;;;12.05;;
58468;SDS011;44257;44.804;10.220;2023-07-08T07:22:39;17.45;;;11.18;;
58468;SDS011;44257;44.804;10.220;2023-07-08T07:25:05;18.92;;;12.35;;
58468;SDS011;44257;44.804;10.220;2023-07-08T07:27:31;17.15;;;11.98;;
58468;SDS011;44257;44.804;10.220;2023-07-08T07:29:57;16.70;;;11.75;;
58468;SDS011;44257;44.804;10.220;2023-07-08T07:32:26;20.75;;;12.82;;
58468;SDS011;44257;44.804;10.220;2023-07-08T07:34:54;21.70;;;12.27;;
58468;SDS011;44257;44.804;10.220;2023-07-08T07:37:22;17.98;;;11.60;;
58468;SDS011;44257;44.804;10.220;2023-07-08T07:39:48;18.00;;;11.98;;
58468;SDS011;44257;44.804;10.220;2023-07-08T07:42:14;15.55;;;11.30;;
58468;SDS011;44257;44.804;10.220;2023-07-08T07:44:41;15.25;;;11.88;;
58468;SDS011;44257;44.804;10.220;2023-07-08T07:47:08;26.98;;;11.85;;
58468;SDS011;44257;44.804;10.220;2023-07-08T07:49:34;14.88;;;10.82;;
58468;SDS011;44257;44.804;10.220;2023-07-08T07:52:00;15.23;;;10.85;;
58468;SDS011;44257;44.804;10.220;2023-07-08T07:54:26;13.90;;;10.23;;
58468;SDS011;44257;44.804;10.220;2023-07-08T07:56:52;16.33;;;11.32;;
58468;SDS011;44257;44.804;10.220;2023-07-08T07:59:18;15.15;;;10.43;;
58468;SDS011;44257;44.804;10.220;2023-07-08T08:01:44;13.63;;;10.27;;
58468;SDS011;44257;44.804;10.220;2023-07-08T08:04:11;17.58;;;10.93;;
58468;SDS011;44257;44.804;10.220;2023-07-08T08:06:37;16.83;;;10.48;;
58468;SDS011;44257;44.804;10.220;2023-07-08T08:09:04;15.02;;;10.63;;
58468;SDS011;44257;44.804;10.220;2023-07-08T08:11:30;15.43;;;10.48;;
58468;SDS011;44257;44.804;10.220;2023-07-08T08:13:57;14.10;;;10.13;;
58468;SDS011;44257;44.804;10.220;2023-07-08T08:16:22;14.02;;;10.10;;
58468;SDS011;44257;44.804;10.220;2023-07-08T08:18:48;14.00;;;9.75;;
58468;SDS011;44257;44.804;10.220;2023-07-08T08:21:14;13.55;;;9.15;;
58468;SDS011;44257;44.804;10.220;2023-07-08T08:23:40;14.43;;;9.90;;
58468;SDS011;44257;44.804;10.220;2023-07-08T08:26:07;13.10;;;9.73;;
58468;SDS011;44257;44.804;10.220;2023-07-08T08:28:33;13.77;;;9.40;;
58468;SDS011;44257;44.804;10.220;2023-07-08T08:30:59;13.85;;;9.35;;
58468;SDS011;44257;44.804;10.220;2023-07-08T08:33:25;13.00;;;9.52;;
58468;SDS011;44257;44.804;10.220;2023-07-08T08:35:51;14.32;;;9.45;;
58468;SDS011;44257;44.804;10.220;2023-07-08T08:38:17;18.90;;;9.10;;
58468;SDS011;44257;44.804;10.220;2023-07-08T08:40:43;13.90;;;8.10;;
58468;SDS011;44257;44.804;10.220;2023-07-08T08:43:10;9.20;;;7.18;;
58468;SDS011;44257;44.804;10.220;2023-07-08T08:46:00;15.73;;;6.93;;
58468;SDS011;44257;44.804;10.220;2023-07-08T08:48:47;8.35;;;5.97;;
58468;SDS011;44257;44.804;10.220;2023-07-08T08:51:23;11.13;;;6.90;;
58468;SDS011;44257;44.804;10.220;2023-07-08T08:53:53;10.05;;;6.68;;
58468;SDS011;44257;44.804;10.220;2023-07-08T08:56:23;7.88;;;5.50;;
58468;SDS011;44257;44.804;10.220;2023-07-08T08:58:56;9.20;;;5.60;;
58468;SDS011;44257;44.804;10.220;2023-07-08T09:01:39;11.50;;;5.80;;
58468;SDS011;44257;44.804;10.220;2023-07-08T09:04:16;12.27;;;6.25;;
58468;SDS011;44257;44.804;10.220;2023-07-08T09:06:46;9.60;;;6.07;;
58468;SDS011;44257;44.804;10.220;2023-07-08T09:09:17;8.82;;;6.05;;
58468;SDS011;44257;44.804;10.220;2023-07-08T09:14:26;8.65;;;6.15;;
58468;SDS011;44257;44.804;10.220;2023-07-08T09:19:52;8.93;;;6.15;;
58468;SDS011;44257;44.804;10.220;2023-07-08T09:22:30;12.13;;;6.55;;
58468;SDS011;44257;44.804;10.220;2023-07-08T09:25:07;9.23;;;7.00;;
58468;SDS011;44257;44.804;10.220;2023-07-08T09:27:52;7.95;;;5.20;;
58468;SDS011;44257;44.804;10.220;2023-07-08T09:30:19;8.35;;;5.10;;
58468;SDS011;44257;44.804;10.220;2023-07-08T09:32:47;8.00;;;5.53;;
58468;SDS011;44257;44.804;10.220;2023-07-08T09:35:56;8.73;;;5.00;;
58468;SDS011;44257;44.804;10.220;2023-07-08T09:38:09;6.05;;;4.38;;
58468;SDS011;44257;44.804;10.220;2023-07-08T09:40:39;10.02;;;4.72;;
58468;SDS011;44257;44.804;10.220;2023-07-08T09:45:41;9.13;;;4.45;;
58468;SDS011;44257;44.804;10.220;2023-07-08T09:48:23;7.15;;;4.47;;
58468;SDS011;44257;44.804;10.220;2023-07-08T09:50:51;7.20;;;4.07;;
58468;SDS011;44257;44.804;10.220;2023-07-08T09:53:18;8.73;;;4.28;;
58468;SDS011;44257;44.804;10.220;2023-07-08T09:55:45;8.20;;;4.13;;
58468;SDS011;44257;44.804;10.220;2023-07-08T09:58:19;7.00;;;4.07;;
58468;SDS011;44257;44.804;10.220;2023-07-08T10:00:59;7.43;;;4.45;;
58468;SDS011;44257;44.804;10.220;2023-07-08T10:03:32;6.35;;;4.28;;
58468;SDS011;44257;44.804;10.220;2023-07-08T10:06:03;6.47;;;4.35;;
58468;SDS011;44257;44.804;10.220;2023-07-08T10:08:37;6.20;;;4.40;;
58468;SDS011;44257;44.804;10.220;2023-07-08T10:11:13;7.85;;;4.40;;
58468;SDS011;44257;44.804;10.220;2023-07-08T10:13:52;9.30;;;4.68;;
58468;SDS011;44257;44.804;10.220;2023-07-08T10:16:26;5.90;;;4.20;;
58468;SDS011;44257;44.804;10.220;2023-07-08T10:18:54;6.85;;;4.20;;
58468;SDS011;44257;44.804;10.220;2023-07-08T10:26:42;8.68;;;4.88;;
58468;SDS011;44257;44.804;10.220;2023-07-08T10:31:51;7.20;;;4.40;;
58468;SDS011;44257;44.804;10.220;2023-07-08T10:37:23;6.80;;;4.15;;
58468;SDS011;44257;44.804;10.220;2023-07-08T10:43:11;6.22;;;4.25;;
58468;SDS011;44257;44.804;10.220;2023-07-08T10:48:41;7.47;;;4.93;;
58468;SDS011;44257;44.804;10.220;2023-07-08T10:54:12;9.18;;;5.22;;
58468;SDS011;44257;44.804;10.220;2023-07-08T10:59:59;7.25;;;4.45;;
58468;SDS011;44257;44.804;10.220;2023-07-08T11:05:23;6.33;;;4.37;;
58468;SDS011;44257;44.804;10.220;2023-07-08T11:07:55;6.65;;;4.55;;
58468;SDS011;44257;44.804;10.220;2023-07-08T11:10:38;7.93;;;4.32;;
58468;SDS011;44257;44.804;10.220;2023-07-08T11:13:17;7.18;;;4.20;;
58468;SDS011;44257;44.804;10.220;2023-07-08T11:15:48;5.70;;;4.13;;
58468;SDS011;44257;44.804;10.220;2023-07-08T11:20:59;7.00;;;4.63;;
58468;SDS011;44257;44.804;10.220;2023-07-08T11:26:48;7.70;;;5.30;;
58468;SDS011;44257;44.804;10.220;2023-07-08T11:29:37;6.68;;;4.45;;
58468;SDS011;44257;44.804;10.220;2023-07-08T11:32:12;6.53;;;4.38;;
58468;SDS011;44257;44.804;10.220;2023-07-08T11:34:41;6.72;;;4.88;;
58468;SDS011;44257;44.804;10.220;2023-07-08T11:37:09;7.10;;;4.50;;
58468;SDS011;44257;44.804;10.220;2023-07-08T11:39:43;6.22;;;4.45;;
58468;SDS011;44257;44.804;10.220;2023-07-08T11:42:34;5.70;;;4.13;;
58468;SDS011;44257;44.804;10.220;2023-07-08T11:47:47;8.25;;;4.85;;
58468;SDS011;44257;44.804;10.220;2023-07-08T11:50:19;6.82;;;4.80;;
58468;SDS011;44257;44.804;10.220;2023-07-08T11:53:13;9.38;;;4.97;;
58468;SDS011;44257;44.804;10.220;2023-07-08T11:56:00;6.22;;;4.88;;
58468;SDS011;44257;44.804;10.220;2023-07-08T12:06:44;6.40;;;3.90;;
58468;SDS011;44257;44.804;10.220;2023-07-08T12:09:26;8.32;;;4.70;;
58468;SDS011;44257;44.804;10.220;2023-07-08T12:11:57;6.70;;;4.35;;
58468;SDS011;44257;44.804;10.220;2023-07-08T12:14:30;7.25;;;4.55;;
58468;SDS011;44257;44.804;10.220;2023-07-08T12:16:57;6.57;;;4.47;;
58468;SDS011;44257;44.804;10.220;2023-07-08T12:19:24;7.35;;;4.65;;
58468;SDS011;44257;44.804;10.220;2023-07-08T12:21:54;6.38;;;4.50;;
58468;SDS011;44257;44.804;10.220;2023-07-08T12:24:20;7.45;;;4.45;;
58468;SDS011;44257;44.804;10.220;2023-07-08T12:26:51;7.23;;;4.10;;
58468;SDS011;44257;44.804;10.220;2023-07-08T12:29:18;7.57;;;4.20;;
58468;SDS011;44257;44.804;10.220;2023-07-08T12:31:44;7.43;;;4.50;;
58468;SDS011;44257;44.804;10.220;2023-07-08T12:34:11;7.55;;;4.72;;
58468;SDS011;44257;44.804;10.220;2023-07-08T12:36:45;7.75;;;4.63;;
58468;SDS011;44257;44.804;10.220;2023-07-08T12:39:12;7.50;;;4.20;;
58468;SDS011;44257;44.804;10.220;2023-07-08T12:41:40;8.57;;;4.72;;
58468;SDS011;44257;44.804;10.220;2023-07-08T12:44:14;7.35;;;4.50;;
58468;SDS011;44257;44.804;10.220;2023-07-08T12:46:48;7.88;;;4.57;;
58468;SDS011;44257;44.804;10.220;2023-07-08T12:49:17;8.65;;;4.32;;
58468;SDS011;44257;44.804;10.220;2023-07-08T12:51:45;6.70;;;4.78;;
58468;SDS011;44257;44.804;10.220;2023-07-08T12:54:11;7.55;;;4.65;;
58468;SDS011;44257;44.804;10.220;2023-07-08T12:56:38;8.77;;;5.00;;
58468;SDS011;44257;44.804;10.220;2023-07-08T12:59:07;5.93;;;3.97;;
58468;SDS011;44257;44.804;10.220;2023-07-08T13:01:37;5.82;;;4.65;;
58468;SDS011;44257;44.804;10.220;2023-07-08T13:04:09;7.35;;;4.25;;
58468;SDS011;44257;44.804;10.220;2023-07-08T13:06:36;7.80;;;4.45;;
58468;SDS011;44257;44.804;10.220;2023-07-08T13:11:52;5.40;;;4.03;;
58468;SDS011;44257;44.804;10.220;2023-07-08T13:14:21;5.70;;;4.25;;
58468;SDS011;44257;44.804;10.220;2023-07-08T13:16:49;6.18;;;3.97;;
58468;SDS011;44257;44.804;10.220;2023-07-08T13:19:15;6.10;;;4.30;;
58468;SDS011;44257;44.804;10.220;2023-07-08T13:21:41;7.20;;;3.88;;
58468;SDS011;44257;44.804;10.220;2023-07-08T13:24:09;7.00;;;4.40;;
58468;SDS011;44257;44.804;10.220;2023-07-08T13:26:38;5.35;;;4.03;;
58468;SDS011;44257;44.804;10.220;2023-07-08T13:29:09;6.93;;;4.13;;
58468;SDS011;44257;44.804;10.220;2023-07-08T13:31:38;8.35;;;4.60;;
58468;SDS011;44257;44.804;10.220;2023-07-08T13:34:06;6.22;;;4.20;;
58468;SDS011;44257;44.804;10.220;2023-07-08T13:36:38;6.88;;;4.10;;
58468;SDS011;44257;44.804;10.220;2023-07-08T13:39:12;5.13;;;3.28;;
58468;SDS011;44257;44.804;10.220;2023-07-08T13:42:06;7.45;;;4.53;;
58468;SDS011;44257;44.804;10.220;2023-07-08T13:44:33;7.63;;;4.07;;
58468;SDS011;44257;44.804;10.220;2023-07-08T13:47:00;5.30;;;4.20;;
58468;SDS011;44257;44.804;10.220;2023-07-08T13:49:29;5.15;;;3.75;;
58468;SDS011;44257;44.804;10.220;2023-07-08T13:52:18;7.53;;;4.05;;
58468;SDS011;44257;44.804;10.220;2023-07-08T13:55:20;6.55;;;4.53;;
58468;SDS011;44257;44.804;10.220;2023-07-08T13:57:42;5.50;;;3.97;;
58468;SDS011;44257;44.804;10.220;2023-07-08T14:00:08;7.72;;;3.95;;
58468;SDS011;44257;44.804;10.220;2023-07-08T14:02:37;6.95;;;4.25;;
58468;SDS011;44257;44.804;10.220;2023-07-08T14:05:12;7.03;;;3.78;;
58468;SDS011;44257;44.804;10.220;2023-07-08T14:07:45;9.35;;;4.03;;
58468;SDS011;44257;44.804;10.220;2023-07-08T14:10:12;8.60;;;3.83;;
58468;SDS011;44257;44.804;10.220;2023-07-08T14:12:39;6.30;;;3.72;;
58468;SDS011;44257;44.804;10.220;2023-07-08T14:15:05;6.50;;;4.22;;
58468;SDS011;44257;44.804;10.220;2023-07-08T14:17:32;7.82;;;4.30;;
58468;SDS011;44257;44.804;10.220;2023-07-08T14:19:58;8.10;;;4.20;;
58468;SDS011;44257;44.804;10.220;2023-07-08T14:22:29;6.00;;;4.03;;
58468;SDS011;44257;44.804;10.220;2023-07-08T14:25:06;7.82;;;4.35;;
58468;SDS011;44257;44.804;10.220;2023-07-08T14:27:34;13.93;;;4.60;;
58468;SDS011;44257;44.804;10.220;2023-07-08T14:30:00;7.70;;;3.83;;
58468;SDS011;44257;44.804;10.220;2023-07-08T14:32:27;5.75;;;3.80;;
58468;SDS011;44257;44.804;10.220;2023-07-08T14:34:58;10.15;;;4.55;;
58468;SDS011;44257;44.804;10.220;2023-07-08T14:37:33;7.00;;;4.20;;
58468;SDS011;44257;44.804;10.220;2023-07-08T14:39:58;7.30;;;4.30;;
58468;SDS011;44257;44.804;10.220;2023-07-08T14:42:27;6.95;;;3.97;;
58468;SDS011;44257;44.804;10.220;2023-07-08T14:44:53;8.25;;;4.50;;
58468;SDS011;44257;44.804;10.220;2023-07-08T14:47:19;7.22;;;4.32;;
58468;SDS011;44257;44.804;10.220;2023-07-08T14:49:45;8.40;;;4.20;;
58468;SDS011;44257;44.804;10.220;2023-07-08T14:52:11;6.15;;;4.20;;
58468;SDS011;44257;44.804;10.220;2023-07-08T14:54:37;5.88;;;4.00;;
58468;SDS011;44257;44.804;10.220;2023-07-08T14:57:03;6.55;;;4.03;;
58468;SDS011;44257;44.804;10.220;2023-07-08T14:59:31;5.75;;;4.00;;
58468;SDS011;44257;44.804;10.220;2023-07-08T15:01:59;7.82;;;4.05;;
58468;SDS011;44257;44.804;10.220;2023-07-08T15:04:25;5.68;;;4.05;;
58468;SDS011;44257;44.804;10.220;2023-07-08T15:06:51;6.15;;;4.00;;
58468;SDS011;44257;44.804;10.220;2023-07-08T15:09:19;6.05;;;3.78;;
58468;SDS011;44257;44.804;10.220;2023-07-08T15:11:45;7.10;;;4.10;;
58468;SDS011;44257;44.804;10.220;2023-07-08T15:14:15;6.63;;;4.10;;
58468;SDS011;44257;44.804;10.220;2023-07-08T15:16:42;7.00;;;4.20;;
58468;SDS011;44257;44.804;10.220;2023-07-08T15:19:11;6.65;;;4.20;;
58468;SDS011;44257;44.804;10.220;2023-07-08T15:21:41;5.32;;;3.97;;
58468;SDS011;44257;44.804;10.220;2023-07-08T15:24:08;5.82;;;4.05;;
58468;SDS011;44257;44.804;10.220;2023-07-08T15:26:37;5.63;;;4.30;;
58468;SDS011;44257;44.804;10.220;2023-07-08T15:29:04;7.20;;;4.25;;
58468;SDS011;44257;44.804;10.220;2023-07-08T15:31:31;5.68;;;4.10;;
58468;SDS011;44257;44.804;10.220;2023-07-08T15:33:59;5.85;;;4.20;;